Dalton, Texas
Current Conditions -  °F | °C
As of 10:15 AM on Sunday 25 Jan 2015 (Local Time) from KOSA Reporting Station
Clear Clear  
Wind Chill: 57°   Ceiling: Unl
Heat Index: 57°   Visibility: 10mi
Dew Point: 37°   Wind: 15mph
Humidity: 47%   Direction: 300°WNW
Pressure: 29.95"   Gusts: 20mph
Location:  33.2006°N, 94.6977°W
Report Text: KOSA 251615Z AUTO 30013G17KT 10SM CLR 14/03 A2995 RMK AO1 T01400027
Loading
Personal Weather Stations






























Interactive Weather Map New forecast layout! Learn more

10-Day Weather Forecast

Advertisements
Track Severe Weather on mobile